Time;durP1;ratioP1;P1;durP2;ratioP2;P2;SDS_P1;SDS_P2;PMS_P1;PMS_P2;Temp;Humidity;BMP_temperature;BMP_pressure;BME280_temperature;BME280_humidity;BME280_pressure;Samples;Min_cycle;Max_cycle;Signal;HPM_P1;HPM_P2
2024/02/13 00:03:14;;;;;;;22.40;5.70;;;;;;;12.69;100.00;100592.97;10595391;27;20156;-77
2024/02/13 00:08:36;;;;;;;18.67;4.60;;;;;;;12.51;100.00;100584.94;10555108;28;20055;-77
2024/02/13 00:13:59;;;;;;;18.33;4.95;;;;;;;12.42;100.00;100591.94;10584276;27;20055;-78
2024/02/13 00:19:24;;;;;;;29.17;6.85;;;;;;;12.55;100.00;100591.13;10602546;27;20046;-77
2024/02/13 00:24:48;;;;;;;18.40;4.50;;;;;;;12.73;100.00;100581.50;10591469;27;20074;-77
2024/02/13 00:30:12;;;;;;;22.23;5.65;;;;;;;12.95;100.00;100589.53;10597503;27;20514;-77
2024/02/13 00:35:36;;;;;;;19.38;4.30;;;;;;;12.96;100.00;100581.59;10625863;27;20046;-77
2024/02/13 00:40:58;;;;;;;19.25;4.90;;;;;;;12.96;100.00;100586.88;10558336;27;20513;-77
2024/02/13 00:46:21;;;;;;;14.25;3.88;;;;;;;12.76;100.00;100577.97;10610062;27;20038;-77
2024/02/13 00:51:46;;;;;;;14.32;3.83;;;;;;;12.73;100.00;100578.84;10631713;27;20156;-77
2024/02/13 00:57:08;;;;;;;14.75;4.20;;;;;;;12.83;100.00;100570.94;10620516;27;20043;-77
2024/02/13 01:02:31;;;;;;;13.45;4.00;;;;;;;12.57;100.00;100571.72;10630776;27;20538;-77
2024/02/13 01:07:55;;;;;;;24.13;6.57;;;;;;;12.38;100.00;100578.72;10609023;27;20099;-78
2024/02/13 01:13:17;;;;;;;15.95;4.57;;;;;;;12.18;100.00;100567.13;10616719;27;20443;-77
2024/02/13 01:18:40;;;;;;;15.93;5.70;;;;;;;12.05;100.00;100572.31;10581458;27;20039;-77
2024/02/13 01:24:05;;;;;;;22.08;4.85;;;;;;;11.93;100.00;100563.44;10581579;27;20043;-77
2024/02/13 01:29:28;;;;;;;31.10;13.13;;;;;;;11.72;100.00;100565.00;10568425;27;20061;-77
2024/02/13 01:34:50;;;;;;;20.75;5.40;;;;;;;11.65;100.00;100565.84;10552460;27;20508;-78
2024/02/13 01:40:17;;;;;;;22.40;12.85;;;;;;;11.55;100.00;100567.53;10592896;27;20035;-76
2024/02/13 01:45:39;;;;;;;13.38;5.25;;;;;;;11.43;100.00;100570.03;10590269;27;20047;-77
2024/02/13 01:51:02;;;;;;;21.02;11.27;;;;;;;11.43;100.00;100562.13;10578292;27;20449;-77
2024/02/13 01:56:28;;;;;;;22.15;7.40;;;;;;;11.26;100.00;100559.34;10585668;27;20131;-77
2024/02/13 02:01:53;;;;;;;16.00;5.18;;;;;;;11.07;100.00;100560.91;10579903;27;20530;-77
2024/02/13 02:07:16;;;;;;;14.13;4.85;;;;;;;10.81;100.00;100556.22;10572754;28;20394;-77
2024/02/13 02:12:40;;;;;;;14.98;4.40;;;;;;;10.75;100.00;100562.31;10590031;27;20051;-76
2024/02/13 02:18:05;;;;;;;13.57;4.00;;;;;;;10.90;100.00;100559.81;10574530;27;20039;-77
2024/02/13 02:23:27;;;;;;;15.10;6.80;;;;;;;10.87;100.00;100561.56;10575674;27;20053;-77
2024/02/13 02:28:51;;;;;;;11.80;4.28;;;;;;;10.60;100.00;100559.50;10560385;27;20043;-77
2024/02/13 02:34:18;;;;;;;15.98;5.07;;;;;;;10.53;100.00;100562.91;10592808;27;20050;-77
2024/02/13 02:39:41;;;;;;;18.30;5.13;;;;;;;10.48;100.00;100557.59;10556994;28;20066;-77
2024/02/13 02:45:06;;;;;;;18.40;5.25;;;;;;;10.35;100.00;100546.00;10575830;27;20050;-76
2024/02/13 02:50:29;;;;;;;13.60;4.47;;;;;;;10.33;100.00;100545.09;10582571;27;20560;-78
2024/02/13 02:55:53;;;;;;;15.82;4.82;;;;;;;10.33;100.00;100549.47;10573288;27;20104;-77
2024/02/13 03:01:17;;;;;;;16.38;6.65;;;;;;;10.23;100.00;100558.16;10580803;27;20050;-76
2024/02/13 03:06:40;;;;;;;20.90;5.10;;;;;;;10.21;100.00;100554.59;10566563;27;20051;-77
2024/02/13 03:12:03;;;;;;;11.80;4.03;;;;;;;10.28;100.00;100562.63;10581647;27;20495;-77
2024/02/13 03:17:27;;;;;;;13.77;4.68;;;;;;;10.30;100.00;100560.00;10543284;28;20055;-77
2024/02/13 03:22:49;;;;;;;15.32;4.50;;;;;;;10.38;100.00;100551.28;10566337;28;20051;-76
2024/02/13 03:28:12;;;;;;;19.60;8.70;;;;;;;10.52;100.00;100553.22;10545124;28;20132;-77
2024/02/13 03:33:36;;;;;;;16.38;4.60;;;;;;;10.65;100.00;100555.16;10566927;28;20496;-78
2024/02/13 03:38:59;;;;;;;14.63;4.47;;;;;;;10.73;100.00;100559.66;10561420;28;20124;-78
2024/02/13 03:44:22;;;;;;;13.50;4.03;;;;;;;10.71;100.00;100555.22;10572554;28;20572;-78
2024/02/13 03:49:46;;;;;;;13.55;5.40;;;;;;;10.48;100.00;100548.78;10546056;28;20035;-77
2024/02/13 03:55:10;;;;;;;14.02;3.70;;;;;;;10.65;100.00;100552.50;10573665;28;20049;-77
2024/02/13 04:00:33;;;;;;;15.68;4.95;;;;;;;10.76;100.00;100554.41;10553368;28;20058;-77
2024/02/13 04:05:57;;;;;;;17.02;5.13;;;;;;;10.56;100.00;100555.06;10558731;28;20036;-76
2024/02/13 04:11:20;;;;;;;15.23;4.47;;;;;;;10.50;100.00;100552.34;10570877;28;20044;-77
2024/02/13 04:16:42;;;;;;;24.55;6.57;;;;;;;10.58;100.00;100556.81;10565574;28;20039;-77
2024/02/13 04:22:07;;;;;;;14.77;5.43;;;;;;;10.57;100.00;100562.97;10545118;28;20063;-77
2024/02/13 04:27:32;;;;;;;11.25;5.22;;;;;;;10.45;100.00;100557.53;10545840;28;20124;-77
2024/02/13 04:32:55;;;;;;;13.68;4.20;;;;;;;10.47;100.00;100560.22;10548751;28;20117;-77
2024/02/13 04:38:19;;;;;;;14.48;3.97;;;;;;;10.36;100.00;100575.91;10558367;28;20273;-77
2024/02/13 04:43:43;;;;;;;12.02;3.97;;;;;;;10.31;100.00;100573.19;10554334;28;20077;-77
2024/02/13 04:49:06;;;;;;;9.75;3.13;;;;;;;10.27;100.00;100566.13;10536822;28;20051;-76
2024/02/13 04:54:30;;;;;;;13.20;6.93;;;;;;;10.37;100.00;100567.13;10566176;28;20100;-77
2024/02/13 04:59:55;;;;;;;16.17;6.63;;;;;;;10.39;100.00;100568.03;10568287;28;20039;-77
2024/02/13 05:10:58;;;;;;;15.65;5.13;;;;;;;10.35;100.00;100572.38;10565647;28;20043;-76
2024/02/13 05:16:22;;;;;;;10.35;4.80;;;;;;;10.20;100.00;100571.28;10575746;28;20506;-77
2024/02/13 05:21:45;;;;;;;8.02;4.40;;;;;;;10.52;100.00;100592.81;10550197;28;20070;-77
2024/02/13 05:27:09;;;;;;;8.48;3.95;;;;;;;10.74;100.00;100592.22;10569162;27;20046;-77
2024/02/13 05:32:32;;;;;;;7.57;3.25;;;;;;;10.89;100.00;100588.88;10590767;27;20138;-77
2024/02/13 05:37:55;;;;;;;13.85;3.53;;;;;;;10.72;100.00;100592.19;10568582;27;20059;-77
2024/02/13 05:43:19;;;;;;;10.98;4.20;;;;;;;10.74;100.00;100581.66;10559420;27;20683;-77
2024/02/13 05:48:42;;;;;;;6.43;3.03;;;;;;;11.49;100.00;100593.88;10593629;27;20058;-77
2024/02/13 05:54:06;;;;;;;7.07;3.08;;;;;;;14.25;100.00;100594.91;10564461;27;20051;-77
2024/02/13 05:59:31;;;;;;;33.15;19.48;;;;;;;16.02;100.00;100596.63;10590278;27;20043;-77
2024/02/13 06:04:54;;;;;;;89.43;61.40;;;;;;;17.58;97.91;100600.06;10570690;27;20296;-78
2024/02/13 06:10:16;;;;;;;15.65;8.95;;;;;;;18.97;83.09;100593.06;10574488;27;20043;-77
2024/02/13 06:15:41;;;;;;;12.85;5.13;;;;;;;19.44;77.26;100603.56;10570593;27;20044;-77
2024/02/13 06:21:04;;;;;;;7.75;2.72;;;;;;;19.64;73.50;100600.44;10566357;27;20052;-76
2024/02/13 06:26:26;;;;;;;9.32;2.17;;;;;;;20.13;65.75;100596.56;10575466;27;20032;-78
2024/02/13 06:31:54;;;;;;;5.03;2.10;;;;;;;21.43;58.23;100597.28;10581495;27;20130;-77
2024/02/13 06:37:17;;;;;;;29.50;16.65;;;;;;;22.47;53.65;100591.97;10561412;27;20035;-77
2024/02/13 06:42:39;;;;;;;9.60;3.25;;;;;;;23.99;47.80;100588.75;10571687;27;20052;-79
2024/02/13 06:48:04;;;;;;;11.50;3.53;;;;;;;24.45;45.71;100595.75;10555714;27;20143;-77
2024/02/13 06:53:27;;;;;;;9.20;2.15;;;;;;;25.14;43.08;100591.66;10549840;27;20043;-79
2024/02/13 11:16:18;;;;;;;6.93;2.20;;;;;;;28.99;28.98;100500.56;10524038;27;20370;-77
2024/02/13 11:21:42;;;;;;;3.90;1.20;;;;;;;28.82;29.10;100498.91;10473602;28;20053;-77
2024/02/13 11:27:05;;;;;;;5.57;1.85;;;;;;;29.08;29.25;100497.22;10475013;28;20524;-75
2024/02/13 11:32:35;;;;;;;6.03;1.73;;;;;;;28.49;29.65;100490.16;10485677;28;20056;-77
2024/02/13 11:38:01;;;;;;;6.05;1.58;;;;;;;28.55;28.96;100493.34;10527159;28;20477;-77
2024/02/13 11:43:26;;;;;;;5.75;1.63;;;;;;;28.01;28.09;100486.78;10499772;28;20446;-79
2024/02/13 11:48:51;;;;;;;6.18;1.33;;;;;;;26.60;29.04;100476.00;10491264;28;20540;-76
2024/02/13 11:54:14;;;;;;;2.85;1.08;;;;;;;25.18;31.21;100471.69;10488425;28;20060;-82
2024/02/13 11:59:36;;;;;;;5.72;1.73;;;;;;;24.12;32.62;100466.75;10478633;28;20045;-76
2024/02/13 12:05:01;;;;;;;9.95;2.33;;;;;;;23.51;33.46;100460.47;10478073;28;20525;-77
2024/02/13 12:10:28;;;;;;;5.18;2.10;;;;;;;23.01;34.04;100454.44;10479030;28;20501;-78
2024/02/13 12:15:53;;;;;;;6.28;1.75;;;;;;;22.80;34.23;100455.31;10480236;28;20057;-76
2024/02/13 12:21:17;;;;;;;5.47;1.70;;;;;;;22.55;34.10;100453.53;10479686;28;20037;-74
2024/02/13 12:26:40;;;;;;;6.57;1.70;;;;;;;22.50;34.52;100449.28;10463492;28;20047;-78
2024/02/13 12:32:06;;;;;;;6.97;1.70;;;;;;;22.42;35.94;100459.44;10474987;28;20053;-79
2024/02/13 12:37:32;;;;;;;5.90;2.67;;;;;;;22.24;36.83;100447.59;10471860;28;20072;-79
2024/02/13 12:42:54;;;;;;;9.68;1.60;;;;;;;22.14;37.34;100447.03;10439485;28;20079;-78
2024/02/13 12:48:17;;;;;;;6.95;1.70;;;;;;;22.05;37.41;100451.88;10437227;28;20491;-79
2024/02/13 12:53:42;;;;;;;9.38;1.90;;;;;;;21.91;37.73;100449.66;10427031;28;20052;-78
2024/02/13 12:59:05;;;;;;;7.75;1.80;;;;;;;21.71;38.30;100452.19;10445060;28;20100;-79
2024/02/13 13:04:28;;;;;;;5.10;1.80;;;;;;;21.54;39.28;100443.81;10451872;28;20098;-80
2024/02/13 13:09:52;;;;;;;6.88;2.03;;;;;;;21.48;40.86;100452.97;10433221;28;20052;-79
2024/02/13 13:15:14;;;;;;;7.15;2.17;;;;;;;21.29;41.69;100444.66;10441548;28;20056;-79
2024/02/13 13:20:38;;;;;;;3.47;1.88;;;;;;;21.07;43.28;100447.13;10492601;28;20055;-79
2024/02/13 13:26:02;;;;;;;7.35;2.20;;;;;;;20.94;43.49;100447.56;10451129;28;20375;-79
2024/02/13 13:31:26;;;;;;;7.60;2.58;;;;;;;20.78;44.56;100446.31;10409810;28;20157;-78
2024/02/13 13:36:49;;;;;;;12.13;3.05;;;;;;;20.55;45.11;100445.19;10431867;28;20053;-77
2024/02/13 13:42:14;;;;;;;5.40;2.30;;;;;;;20.49;46.20;100457.91;10471077;28;20041;-78
2024/02/13 13:47:37;;;;;;;7.93;2.42;;;;;;;20.35;48.42;100450.28;10419285;28;20059;-78
2024/02/13 13:53:00;;;;;;;12.48;5.07;;;;;;;20.31;51.00;100464.69;10447582;28;20052;-78
2024/02/13 13:58:24;;;;;;;9.45;2.83;;;;;;;20.32;54.02;100458.41;10455760;28;20049;-77
2024/02/13 14:03:48;;;;;;;7.15;2.42;;;;;;;20.28;55.92;100456.75;10471601;28;20049;-79
2024/02/13 14:09:11;;;;;;;9.75;2.30;;;;;;;20.28;57.67;100464.78;10429637;28;20497;-79
2024/02/13 14:14:35;;;;;;;10.07;2.70;;;;;;;20.26;59.36;100467.50;10432386;28;20549;-79
2024/02/13 14:19:57;;;;;;;8.38;2.78;;;;;;;20.06;62.01;100469.88;10440884;28;20150;-78
2024/02/13 14:25:20;;;;;;;9.65;3.05;;;;;;;19.69;67.59;100469.97;10474988;28;20048;-77
2024/02/13 14:30:44;;;;;;;5.03;2.38;;;;;;;19.13;73.36;100475.84;10435425;28;20552;-78
2024/02/13 14:36:08;;;;;;;11.80;2.72;;;;;;;18.65;78.85;100476.06;10405411;28;20045;-78
2024/02/13 14:41:31;;;;;;;8.80;3.08;;;;;;;18.40;83.26;100469.44;10449156;28;20515;-78
2024/02/13 14:46:57;;;;;;;10.43;2.88;;;;;;;18.12;86.19;100477.13;10439394;28;20052;-77
2024/02/13 14:52:20;;;;;;;11.77;3.00;;;;;;;17.89;88.00;100473.16;10440348;28;20045;-76
2024/02/13 14:57:42;;;;;;;10.82;3.05;;;;;;;17.70;90.37;100479.72;10445084;28;20071;-77
2024/02/13 15:03:07;;;;;;;10.45;3.35;;;;;;;17.53;92.80;100479.09;10392515;28;20048;-77
2024/02/13 15:08:32;;;;;;;12.98;5.25;;;;;;;17.29;95.80;100482.19;10428772;28;20490;-76
2024/02/13 15:13:56;;;;;;;13.80;5.85;;;;;;;17.09;98.56;100488.72;10426304;28;20445;-79
2024/02/13 15:19:21;;;;;;;9.30;6.75;;;;;;;16.95;99.91;100485.38;10483311;28;20505;-80
2024/02/13 15:24:43;;;;;;;15.60;5.65;;;;;;;16.84;100.00;100487.34;10463093;28;20072;-80
2024/02/13 15:30:11;;;;;;;9.43;4.95;;;;;;;16.75;100.00;100479.47;10493298;28;20048;-80
2024/02/13 15:35:41;;;;;;;12.05;4.95;;;;;;;16.58;100.00;100495.66;10498714;28;20072;-80
2024/02/13 15:47:03;;;;;;;15.68;6.68;;;;;;;16.37;100.00;100513.69;10475318;28;20049;-77
2024/02/13 15:52:27;;;;;;;15.75;7.18;;;;;;;16.15;100.00;100500.63;10471805;28;20044;-77
2024/02/13 15:57:50;;;;;;;12.18;6.03;;;;;;;15.92;100.00;100523.97;10473563;28;20041;-79
2024/02/13 16:03:13;;;;;;;10.15;6.03;;;;;;;15.77;100.00;100519.66;10500002;28;20072;-77
2024/02/13 16:08:37;;;;;;;8.50;5.10;;;;;;;15.55;100.00;100518.13;10510152;28;20044;-77
2024/02/13 16:14:02;;;;;;;17.10;7.22;;;;;;;15.40;100.00;100520.84;10502806;28;20053;-83
2024/02/13 16:19:25;;;;;;;24.02;13.07;;;;;;;15.40;100.00;100528.84;10450270;28;20041;-79
2024/02/13 16:24:48;;;;;;;50.78;31.48;;;;;;;15.16;100.00;100524.59;10430504;28;20052;-77
2024/02/13 16:30:11;;;;;;;43.40;24.33;;;;;;;15.10;100.00;100541.44;10464935;28;20485;-77
2024/02/13 16:35:34;;;;;;;44.92;24.33;;;;;;;14.92;100.00;100532.69;10455020;28;20048;-78
2024/02/13 16:40:58;;;;;;;51.20;26.33;;;;;;;14.58;100.00;100545.28;10480987;28;20048;-78
2024/02/13 16:46:22;;;;;;;36.53;21.45;;;;;;;14.34;100.00;100548.88;10429581;28;20056;-79
2024/02/13 16:51:44;;;;;;;49.95;32.47;;;;;;;13.98;100.00;100555.16;10444556;28;20065;-79
2024/02/13 16:57:10;;;;;;;41.90;32.10;;;;;;;13.87;100.00;100559.59;10463295;28;20401;-76
2024/02/13 17:02:32;;;;;;;31.67;21.00;;;;;;;13.90;100.00;100565.81;10474540;28;20135;-78
2024/02/13 17:07:57;;;;;;;26.70;20.30;;;;;;;13.87;100.00;100563.13;10447741;28;20048;-78
2024/02/13 17:13:21;;;;;;;20.15;17.10;;;;;;;13.83;100.00;100568.47;10456407;28;20048;-78
2024/02/13 17:18:43;;;;;;;14.18;10.50;;;;;;;13.64;100.00;100567.59;10471440;28;20048;-79
2024/02/13 17:24:08;;;;;;;14.60;9.65;;;;;;;13.52;100.00;100559.63;10457370;28;20044;-80
2024/02/13 17:29:32;;;;;;;11.82;7.22;;;;;;;13.51;100.00;100565.81;10484361;28;20049;-78
2024/02/13 17:34:54;;;;;;;10.32;6.63;;;;;;;13.41;100.00;100575.53;10443775;28;20126;-81
2024/02/13 17:40:17;;;;;;;18.17;10.98;;;;;;;13.32;100.00;100569.34;10438034;28;20045;-81
2024/02/13 17:45:41;;;;;;;10.38;8.80;;;;;;;13.33;100.00;100577.28;10422808;28;20041;-78
2024/02/13 17:51:04;;;;;;;31.38;28.23;;;;;;;13.13;100.00;100582.53;10475205;28;20048;-78
2024/02/13 17:56:26;;;;;;;22.92;20.67;;;;;;;13.12;100.00;100586.09;10454802;28;20427;-78
2024/02/13 18:01:52;;;;;;;17.67;10.32;;;;;;;12.72;100.00;100590.34;10430375;28;20136;-78
2024/02/13 18:07:14;;;;;;;23.25;10.55;;;;;;;12.66;100.00;100579.72;10423801;28;20373;-79
2024/02/13 18:12:38;;;;;;;16.55;6.05;;;;;;;12.58;100.00;100592.03;10428158;28;20060;-79
2024/02/13 18:18:02;;;;;;;11.23;7.05;;;;;;;12.46;100.00;100596.41;10483027;28;20041;-80
2024/02/13 18:23:24;;;;;;;11.50;6.30;;;;;;;12.28;100.00;100591.88;10434848;28;20044;-78
2024/02/13 18:28:47;;;;;;;12.55;6.88;;;;;;;12.29;100.00;100591.88;10462821;28;20052;-78
2024/02/13 18:34:11;;;;;;;28.80;20.38;;;;;;;12.14;100.00;100599.72;10443718;28;20045;-77
2024/02/13 18:39:35;;;;;;;19.27;9.73;;;;;;;12.21;100.00;100601.53;10455552;28;20056;-78
2024/02/13 18:44:57;;;;;;;15.93;6.93;;;;;;;12.16;100.00;100605.91;10470719;28;20685;-78
2024/02/13 18:50:21;;;;;;;12.90;6.18;;;;;;;12.09;100.00;100605.84;10471961;28;20143;-79
2024/02/13 18:55:44;;;;;;;19.85;11.70;;;;;;;12.09;100.00;100608.50;10412294;28;20052;-80
2024/02/13 19:01:09;;;;;;;25.70;16.25;;;;;;;12.13;100.00;100611.19;10442336;28;20136;-78
2024/02/13 19:06:33;;;;;;;11.52;8.35;;;;;;;12.12;100.00;100614.72;10436429;28;20055;-80
2024/02/13 19:11:55;;;;;;;23.58;17.42;;;;;;;12.20;100.00;100617.41;10440305;28;20126;-77
2024/02/13 19:17:18;;;;;;;37.72;29.98;;;;;;;12.21;100.00;100616.53;10460239;28;20090;-79
2024/02/13 19:22:43;;;;;;;16.77;11.68;;;;;;;12.28;100.00;100613.03;10464523;28;20130;-78
2024/02/13 19:28:07;;;;;;;20.33;16.35;;;;;;;12.34;100.00;100626.31;10465987;28;20044;-78
2024/02/13 19:33:29;;;;;;;22.80;15.93;;;;;;;12.58;100.00;100626.47;10459549;28;20037;-77
2024/02/13 19:38:53;;;;;;;16.30;8.52;;;;;;;12.67;100.00;100620.31;10455245;28;20057;-78
2024/02/13 19:44:17;;;;;;;22.17;14.75;;;;;;;12.93;100.00;100620.44;10476850;28;20056;-79
2024/02/13 19:49:39;;;;;;;23.90;21.00;;;;;;;13.14;100.00;100612.56;10450258;28;20098;-79
2024/02/13 19:55:05;;;;;;;26.02;21.02;;;;;;;13.29;100.00;100623.22;10446288;28;20081;-78
2024/02/13 20:00:28;;;;;;;16.02;12.15;;;;;;;13.42;100.00;100617.06;10442963;28;20045;-79
2024/02/13 20:05:51;;;;;;;24.08;16.83;;;;;;;13.56;100.00;100606.47;10486147;28;20524;-78
2024/02/13 20:11:16;;;;;;;19.88;16.23;;;;;;;13.54;100.00;100613.53;10488086;28;20049;-78
2024/02/13 20:16:38;;;;;;;18.58;13.20;;;;;;;13.40;100.00;100602.03;10477025;28;20081;-78
2024/02/13 20:22:01;;;;;;;21.15;13.63;;;;;;;13.39;100.00;100605.59;10467441;28;20410;-78
2024/02/13 20:27:25;;;;;;;21.02;18.90;;;;;;;13.71;100.00;100605.59;10439700;28;20107;-78
2024/02/13 20:32:48;;;;;;;10.68;8.02;;;;;;;13.87;100.00;100623.28;10481656;28;20057;-78
2024/02/13 20:38:11;;;;;;;23.35;13.20;;;;;;;13.52;100.00;100608.22;10466539;28;20456;-79
2024/02/13 20:43:39;;;;;;;9.50;5.30;;;;;;;13.01;100.00;100610.72;10470908;28;20063;-79
2024/02/13 20:49:01;;;;;;;10.27;3.40;;;;;;;12.91;100.00;100612.50;10463743;28;20057;-79
2024/02/13 20:54:24;;;;;;;8.32;2.97;;;;;;;12.82;100.00;100608.91;10414479;28;20057;-79
2024/02/13 20:59:48;;;;;;;6.55;2.40;;;;;;;13.04;100.00;100605.47;10434826;28;20045;-78
2024/02/13 21:05:11;;;;;;;8.00;4.10;;;;;;;13.22;100.00;100613.47;10478612;28;20049;-79
2024/02/13 21:10:34;;;;;;;7.07;2.50;;;;;;;13.13;100.00;100605.50;10437735;28;20551;-77
2024/02/13 21:15:59;;;;;;;10.05;2.80;;;;;;;12.86;100.00;100605.41;10434380;28;20076;-77
2024/02/13 21:26:57;;;;;;;10.80;3.30;;;;;;;12.67;100.00;100605.31;10456472;28;20053;-78
2024/02/13 21:32:21;;;;;;;6.32;3.90;;;;;;;12.88;100.00;100593.03;10479185;28;20076;-78
2024/02/13 21:37:44;;;;;;;8.95;5.90;;;;;;;12.78;100.00;100581.53;10479214;28;20099;-78
2024/02/13 21:43:07;;;;;;;10.43;8.15;;;;;;;12.64;100.00;100585.88;10437224;28;20048;-78
2024/02/13 21:48:31;;;;;;;7.35;3.42;;;;;;;12.44;100.00;100595.50;10461568;28;20114;-78
2024/02/13 21:53:54;;;;;;;7.03;3.17;;;;;;;12.49;100.00;100599.94;10478298;28;20478;-78
2024/02/13 21:59:17;;;;;;;9.55;4.50;;;;;;;12.51;100.00;100595.53;10449320;28;20045;-79
2024/02/13 22:04:41;;;;;;;5.35;3.35;;;;;;;12.55;100.00;100589.38;10436338;28;20048;-79
2024/02/13 22:10:05;;;;;;;10.18;3.53;;;;;;;12.60;100.00;100590.25;10435786;28;20809;-78
2024/02/13 22:15:27;;;;;;;7.43;3.42;;;;;;;12.44;100.00;100590.19;10449364;28;20049;-77
2024/02/13 22:20:51;;;;;;;6.88;3.05;;;;;;;12.27;100.00;100587.47;10448257;28;20056;-79
2024/02/13 22:26:14;;;;;;;3.72;2.90;;;;;;;12.36;100.00;100588.41;10435159;28;20053;-78
2024/02/13 22:31:36;;;;;;;11.38;3.70;;;;;;;12.42;100.00;100587.53;10463233;28;20049;-79
2024/02/13 22:37:00;;;;;;;8.75;3.63;;;;;;;12.22;100.00;100578.59;10449271;28;20052;-78
2024/02/13 22:42:23;;;;;;;9.68;3.40;;;;;;;12.10;100.00;100575.88;10435819;28;20131;-80
2024/02/13 22:47:46;;;;;;;7.53;3.88;;;;;;;12.10;100.00;100566.19;10430289;28;20561;-78
2024/02/13 22:53:10;;;;;;;6.13;3.42;;;;;;;11.84;100.00;100573.94;10463406;28;20391;-79
2024/02/13 22:58:33;;;;;;;9.15;4.13;;;;;;;11.72;100.00;100565.00;10439363;28;20057;-79
2024/02/13 23:03:55;;;;;;;9.30;3.50;;;;;;;11.72;100.00;100570.28;10434089;28;20048;-79
2024/02/13 23:09:20;;;;;;;10.95;4.38;;;;;;;11.78;100.00;100573.91;10433246;28;20061;-78
2024/02/13 23:14:42;;;;;;;10.73;6.10;;;;;;;12.03;100.00;100569.66;10461174;28;20053;-78
2024/02/13 23:20:10;;;;;;;11.40;3.90;;;;;;;12.11;100.00;100560.03;10417419;28;20052;-78
2024/02/13 23:25:35;;;;;;;6.57;3.95;;;;;;;11.92;100.00;100564.31;10432919;28;20064;-78
2024/02/13 23:30:57;;;;;;;9.55;5.13;;;;;;;11.84;100.00;100562.47;10432079;28;20388;-78
2024/02/13 23:36:20;;;;;;;15.10;9.02;;;;;;;11.95;100.00;100566.97;10433248;28;20111;-78
2024/02/13 23:41:45;;;;;;;12.13;6.93;;;;;;;11.68;100.00;100557.94;10448126;28;20586;-79
2024/02/13 23:47:07;;;;;;;12.55;6.57;;;;;;;11.53;100.00;100548.13;10458628;28;20049;-79
2024/02/13 23:52:31;;;;;;;13.77;6.30;;;;;;;11.43;100.00;100549.78;10461161;28;20053;-78
2024/02/13 23:57:55;;;;;;;8.77;5.10;;;;;;;11.73;100.00;100542.97;10432271;28;20069;-79
